Lakewood Village, Texas
Current Conditions -  °F | °C
As of 12:22 AM on Sunday 21 Dec 2014 (Local Time) from KDTO Reporting Station
Overcast Overcast  
Wind Chill: 44°   Ceiling: 1200
Heat Index: 46°   Visibility: 8mi
Dew Point: 43°   Wind: 5mph
Humidity: 89%   Direction: 130°SE
Pressure: 30.17"   Gusts: NA
Location:  33.1913°N, 96.9829°W
Report Text: KDTO 210622Z AUTO 13004KT 8SM BKN012 OVC032 08/06 A3017 RMK AO2 T00780061
Loading
Personal Weather Stations






























Interactive Weather Map New forecast layout! Learn more

10-Day Weather Forecast

Advertisements
Track Severe Weather on mobile